createdAt,value
2023-08-11T00:00:40.897Z,96811.19
2023-08-11T00:02:12.678Z,96814.97
2023-08-11T00:03:47.097Z,96804.25
2023-08-11T00:05:20.665Z,96809.56
2023-08-11T00:06:52.494Z,96809.91
2023-08-11T00:08:24.208Z,96816.25
2023-08-11T00:09:56.253Z,96806.25
2023-08-11T00:11:27.894Z,96809.34
2023-08-11T00:12:59.693Z,96806.41
2023-08-11T00:14:31.464Z,96807.72
2023-08-11T00:16:04.573Z,96806.28
2023-08-11T00:17:36.375Z,96811.75
2023-08-11T00:19:08.405Z,96800.88
2023-08-11T00:20:41.747Z,96815.78
2023-08-11T00:22:13.385Z,96815.97
2023-08-11T00:23:45.179Z,96810.38
2023-08-11T00:25:16.907Z,96814.00
2023-08-11T00:26:48.767Z,96817.94
2023-08-11T00:28:20.409Z,96818.09
2023-08-11T00:29:52.406Z,96818.03
2023-08-11T00:31:24.122Z,96826.22
2023-08-11T00:32:56.012Z,96826.25
2023-08-11T00:34:27.858Z,96822.31
2023-08-11T00:36:00.893Z,96826.47
2023-08-11T00:37:32.719Z,96824.53
2023-08-11T00:39:04.648Z,96820.69
2023-08-11T00:40:37.781Z,96821.16
2023-08-11T00:42:09.458Z,96822.22
2023-08-11T00:43:41.127Z,96826.97
2023-08-11T00:45:12.767Z,96824.50
2023-08-11T00:46:44.710Z,96830.78
2023-08-11T00:48:16.809Z,96826.81
2023-08-11T00:49:50.712Z,96824.13
2023-08-11T00:51:25.714Z,96823.38
2023-08-11T00:53:02.352Z,96827.50
2023-08-11T00:54:34.160Z,96824.22
2023-08-11T00:56:05.845Z,96825.28
2023-08-11T00:57:38.274Z,96824.03
2023-08-11T00:59:11.047Z,96821.69
2023-08-11T01:00:42.800Z,96824.00
2023-08-11T01:02:14.499Z,96825.59
2023-08-11T01:03:48.803Z,96825.88
2023-08-11T01:05:20.691Z,96831.41
2023-08-11T01:06:57.822Z,96833.56
2023-08-11T01:08:31.279Z,96828.19
2023-08-11T01:10:05.870Z,96836.75
2023-08-11T01:11:39.585Z,96832.81
2023-08-11T01:13:14.330Z,96821.63
2023-08-11T01:14:48.972Z,96831.31
2023-08-11T01:16:21.335Z,96837.06
2023-08-11T01:17:53.016Z,96833.84
2023-08-11T01:19:29.777Z,96830.78
2023-08-11T01:21:04.577Z,96833.03
2023-08-11T01:22:38.098Z,96832.06
2023-08-11T01:24:11.790Z,96835.56
2023-08-11T01:25:43.466Z,96834.63
2023-08-11T01:27:15.214Z,96842.44
2023-08-11T01:28:48.703Z,96843.75
2023-08-11T01:30:20.546Z,96836.66
2023-08-11T01:31:52.361Z,96842.28
2023-08-11T01:33:24.073Z,96837.91
2023-08-11T01:34:55.908Z,96843.34
2023-08-11T01:36:27.971Z,96844.44
2023-08-11T01:38:00.448Z,96847.09
2023-08-11T01:39:34.203Z,96845.72
2023-08-11T01:41:06.249Z,96843.81
2023-08-11T01:42:46.579Z,96850.97
2023-08-11T01:44:22.373Z,96850.22
2023-08-11T01:45:54.248Z,96847.09
2023-08-11T01:47:25.913Z,96843.66
2023-08-11T01:48:57.605Z,96837.13
2023-08-11T01:50:29.636Z,96852.84
2023-08-11T01:52:01.398Z,96847.94
2023-08-11T01:53:33.065Z,96842.59
2023-08-11T01:55:07.531Z,96849.13
2023-08-11T01:56:39.325Z,96847.81
2023-08-11T01:58:10.980Z,96849.53
2023-08-11T01:59:42.766Z,96845.59
2023-08-11T02:01:14.500Z,96849.53
2023-08-11T02:02:46.535Z,96848.72
2023-08-11T02:04:19.081Z,96842.84
2023-08-11T02:05:50.702Z,96849.34
2023-08-11T02:07:22.329Z,96846.78
2023-08-11T02:08:53.982Z,96841.13
2023-08-11T02:10:27.033Z,96846.47
2023-08-11T02:11:58.743Z,96846.75
2023-08-11T02:13:31.177Z,96844.00
2023-08-11T02:15:02.841Z,96848.47
2023-08-11T02:16:35.033Z,96838.22
2023-08-11T02:18:06.944Z,96842.13
2023-08-11T02:19:38.618Z,96841.41
2023-08-11T02:21:11.380Z,96846.44
2023-08-11T02:22:43.083Z,96833.38
2023-08-11T02:24:14.777Z,96833.56
2023-08-11T02:25:47.947Z,96848.47
2023-08-11T02:27:19.575Z,96846.09
2023-08-11T02:28:51.524Z,96840.63
2023-08-11T02:30:23.656Z,96829.44
2023-08-11T02:31:55.407Z,96841.47
2023-08-11T02:33:27.361Z,96831.34
2023-08-11T02:34:59.269Z,96828.25
2023-08-11T02:36:31.059Z,96837.66
2023-08-11T02:38:02.883Z,96840.81
2023-08-11T02:39:34.646Z,96829.31
2023-08-11T02:41:07.875Z,96831.59
2023-08-11T02:42:43.731Z,96837.41
2023-08-11T02:44:15.450Z,96832.75
2023-08-11T02:45:47.849Z,96833.38
2023-08-11T02:47:19.606Z,96834.66
2023-08-11T02:48:51.458Z,96830.53
2023-08-11T02:50:23.185Z,96832.16
2023-08-11T02:51:54.896Z,96838.81
2023-08-11T02:53:27.108Z,96835.13
2023-08-11T02:54:58.954Z,96837.88
2023-08-11T02:56:32.446Z,96839.19
2023-08-11T02:58:04.265Z,96833.34
2023-08-11T02:59:36.339Z,96838.56
2023-08-11T03:01:08.508Z,96834.31
2023-08-11T03:02:40.711Z,96831.09
2023-08-11T03:04:12.412Z,96837.69
2023-08-11T03:05:44.275Z,96842.91
2023-08-11T03:07:15.933Z,96841.28
2023-08-11T03:08:47.569Z,96835.72
2023-08-11T03:10:19.272Z,96835.94
2023-08-11T03:11:52.303Z,96836.59
2023-08-11T03:13:24.959Z,96842.84
2023-08-11T03:14:56.700Z,96845.91
2023-08-11T03:16:28.579Z,96842.09
2023-08-11T03:18:00.346Z,96847.66
2023-08-11T03:19:32.537Z,96846.78
2023-08-11T03:21:18.578Z,96851.34
2023-08-11T03:22:50.822Z,96847.84
2023-08-11T03:24:22.631Z,96851.91
2023-08-11T03:25:54.698Z,96855.91
2023-08-11T03:27:27.806Z,96848.53
2023-08-11T03:28:59.531Z,96844.38
2023-08-11T03:30:31.624Z,96852.72
2023-08-11T03:32:04.140Z,96852.81
2023-08-11T03:33:35.778Z,96853.72
2023-08-11T03:35:07.813Z,96849.91
2023-08-11T03:36:39.520Z,96857.97
2023-08-11T03:38:11.208Z,96854.88
2023-08-11T03:39:42.849Z,96855.22
2023-08-11T03:41:14.586Z,96862.53
2023-08-11T03:42:47.689Z,96862.59
2023-08-11T03:44:19.749Z,96857.09
2023-08-11T03:45:51.420Z,96860.47
2023-08-11T03:47:23.051Z,96855.59
2023-08-11T03:48:54.729Z,96858.69
2023-08-11T03:50:26.672Z,96862.22
2023-08-11T03:51:58.486Z,96862.28
2023-08-11T03:53:30.287Z,96863.94
2023-08-11T03:55:02.264Z,96866.34
2023-08-11T03:56:34.045Z,96860.41
2023-08-11T03:58:10.664Z,96864.56
2023-08-11T03:59:42.344Z,96866.97
2023-08-11T04:01:14.207Z,96873.81
2023-08-11T04:02:46.933Z,96875.88
2023-08-11T04:04:19.144Z,96873.81
2023-08-11T04:05:51.152Z,96874.47
2023-08-11T04:07:22.784Z,96873.59
2023-08-11T04:08:54.487Z,96865.66
2023-08-11T04:10:26.208Z,96866.28
2023-08-11T04:11:57.914Z,96865.59
2023-08-11T04:13:31.214Z,96868.56
2023-08-11T04:15:03.019Z,96871.94
2023-08-11T04:16:34.658Z,96869.66
2023-08-11T04:18:06.517Z,96864.28
2023-08-11T04:19:38.280Z,96878.78
2023-08-11T04:21:10.517Z,96875.75
2023-08-11T04:22:42.316Z,96872.53
2023-08-11T04:24:14.339Z,96873.00
2023-08-11T04:25:46.055Z,96873.53
2023-08-11T04:27:18.492Z,96872.03
2023-08-11T04:28:51.554Z,96878.25
2023-08-11T04:30:23.484Z,96877.94
2023-08-11T04:31:55.174Z,96879.31
2023-08-11T04:33:27.051Z,96878.13
2023-08-11T04:34:58.850Z,96875.44
2023-08-11T04:36:30.568Z,96876.22
2023-08-11T04:38:02.499Z,96881.81
2023-08-11T04:39:34.272Z,96881.53
2023-08-11T04:41:05.920Z,96881.97
2023-08-11T04:42:37.590Z,96878.13
2023-08-11T04:44:10.780Z,96885.16
2023-08-11T04:45:42.438Z,96880.63
2023-08-11T04:47:14.076Z,96879.38
2023-08-11T04:48:46.167Z,96872.88
2023-08-11T04:50:18.053Z,96875.50
2023-08-11T04:51:49.706Z,96873.28
2023-08-11T04:53:22.459Z,96874.09
2023-08-11T04:54:54.277Z,96875.31
2023-08-11T04:56:25.941Z,96871.81
2023-08-11T04:57:57.578Z,96873.44
2023-08-11T04:59:30.745Z,96880.00
2023-08-11T05:01:05.080Z,96878.97
2023-08-11T05:02:36.851Z,96885.44
2023-08-11T05:04:09.676Z,96883.94
2023-08-11T05:05:42.424Z,96879.78
2023-08-11T05:07:14.260Z,96882.22
2023-08-11T05:08:46.371Z,96876.09
2023-08-11T05:10:18.273Z,96876.38
2023-08-11T05:11:50.395Z,96887.44
2023-08-11T05:13:22.168Z,96875.59
2023-08-11T05:14:55.324Z,96885.69
2023-08-11T05:16:27.024Z,96878.38
2023-08-11T05:17:58.763Z,96883.81
2023-08-11T05:19:30.538Z,96888.38
2023-08-11T05:21:02.209Z,96891.41
2023-08-11T05:22:33.946Z,96895.28
2023-08-11T05:24:07.043Z,96896.56
2023-08-11T05:25:41.692Z,96894.28
2023-08-11T05:27:15.553Z,96897.69
2023-08-11T05:28:47.346Z,96897.25
2023-08-11T05:30:25.468Z,96896.19
2023-08-11T05:31:57.171Z,96890.44
2023-08-11T05:33:29.027Z,96893.59
2023-08-11T05:35:00.949Z,96894.44
2023-08-11T05:36:32.826Z,96898.38
2023-08-11T05:38:04.493Z,96899.59
2023-08-11T05:39:38.989Z,96903.06
2023-08-11T05:41:11.810Z,96899.25
2023-08-11T05:42:43.768Z,96893.81
2023-08-11T05:44:15.455Z,96902.41
2023-08-11T05:45:48.785Z,96894.31
2023-08-11T05:47:20.608Z,96898.59
2023-08-11T05:48:52.348Z,96889.50
2023-08-11T05:50:24.123Z,96898.72
2023-08-11T05:51:55.806Z,96904.25
2023-08-11T05:53:27.534Z,96901.56
2023-08-11T05:54:59.191Z,96901.06
2023-08-11T05:56:31.288Z,96906.59
2023-08-11T05:58:03.272Z,96904.81
2023-08-11T05:59:35.169Z,96898.31
2023-08-11T06:01:08.228Z,96903.31
2023-08-11T06:02:40.001Z,96909.50
2023-08-11T06:04:11.937Z,96913.75
2023-08-11T06:05:43.666Z,96905.31
2023-08-11T06:07:15.699Z,96913.13
2023-08-11T06:08:47.366Z,96914.69
2023-08-11T06:10:19.248Z,96915.47
2023-08-11T06:11:50.887Z,96920.19
2023-08-11T06:13:22.945Z,96916.41
2023-08-11T06:14:54.575Z,96914.75
2023-08-11T06:16:27.930Z,96917.75
2023-08-11T06:18:01.033Z,96921.16
2023-08-11T06:19:32.856Z,96921.22
2023-08-11T06:21:08.576Z,96921.63
2023-08-11T06:22:40.528Z,96922.25
2023-08-11T06:24:12.399Z,96911.78
2023-08-11T06:25:46.525Z,96911.44
2023-08-11T06:27:18.355Z,96915.22
2023-08-11T06:28:50.090Z,96919.13
2023-08-11T06:30:22.016Z,96915.94
2023-08-11T06:31:55.277Z,96908.84
2023-08-11T06:33:27.464Z,96906.16
2023-08-11T06:34:59.094Z,96916.91
2023-08-11T06:36:30.834Z,96911.94
2023-08-11T06:38:02.559Z,96907.66
2023-08-11T06:39:34.247Z,96912.34
2023-08-11T06:41:06.236Z,96920.94
2023-08-11T06:42:37.885Z,96923.66
2023-08-11T06:44:16.081Z,96919.47
2023-08-11T06:45:48.524Z,96921.41
2023-08-11T06:47:22.160Z,96925.69
2023-08-11T06:48:53.976Z,96922.53
2023-08-11T06:50:26.031Z,96920.19
2023-08-11T06:51:57.933Z,96916.69
2023-08-11T06:53:29.779Z,96924.88
2023-08-11T06:55:01.489Z,96922.97
2023-08-11T06:56:33.528Z,96913.75
2023-08-11T06:58:05.648Z,96922.28
2023-08-11T06:59:37.318Z,96920.78
2023-08-11T07:01:09.217Z,96918.50
2023-08-11T07:02:42.328Z,96923.47
2023-08-11T07:04:14.424Z,96917.69
2023-08-11T07:05:46.549Z,96915.03
2023-08-11T07:07:21.090Z,96916.22
2023-08-11T07:08:52.725Z,96919.63
2023-08-11T07:10:25.948Z,96921.59
2023-08-11T07:11:57.888Z,96923.59
2023-08-11T07:13:29.542Z,96925.16
2023-08-11T07:15:01.464Z,96921.66
2023-08-11T07:16:33.453Z,96920.50
2023-08-11T07:18:06.739Z,96928.22
2023-08-11T07:19:38.490Z,96923.59
2023-08-11T07:21:10.458Z,96923.22
2023-08-11T07:22:42.168Z,96915.19
2023-08-11T07:24:13.845Z,96924.06
2023-08-11T07:25:45.632Z,96911.34
2023-08-11T07:27:19.476Z,96923.69
2023-08-11T07:28:53.632Z,96927.94
2023-08-11T07:30:25.490Z,96927.56
2023-08-11T07:31:57.847Z,96930.25
2023-08-11T07:33:30.984Z,96927.59
2023-08-11T07:35:02.864Z,96927.59
2023-08-11T07:36:37.817Z,96928.38
2023-08-11T07:38:11.414Z,96934.16
2023-08-11T07:39:44.266Z,96920.25
2023-08-11T07:41:15.918Z,96922.97
2023-08-11T07:42:47.790Z,96922.56
2023-08-11T07:44:19.526Z,96930.28
2023-08-11T07:45:51.240Z,96934.56
2023-08-11T07:47:23.615Z,96926.06
2023-08-11T07:48:56.643Z,96933.00
2023-08-11T07:50:28.311Z,96924.50
2023-08-11T07:52:00.135Z,96924.16
2023-08-11T07:53:32.954Z,96933.41
2023-08-11T07:55:05.726Z,96929.56
2023-08-11T07:56:37.541Z,96936.88
2023-08-11T07:58:09.309Z,96933.03
2023-08-11T07:59:41.148Z,96931.09
2023-08-11T08:01:12.899Z,96934.19
2023-08-11T08:02:45.517Z,96939.22
2023-08-11T08:04:18.863Z,96939.19
2023-08-11T08:05:50.991Z,96938.81
2023-08-11T08:07:22.665Z,96934.94
2023-08-11T08:08:54.481Z,96931.41
2023-08-11T08:10:26.359Z,96934.53
2023-08-11T08:11:58.081Z,96927.22
2023-08-11T08:13:30.458Z,96926.00
2023-08-11T08:15:02.858Z,96931.41
2023-08-11T08:16:39.973Z,96929.09
2023-08-11T08:18:11.974Z,96942.19
2023-08-11T08:19:46.092Z,96939.44
2023-08-11T08:21:18.029Z,96930.88
2023-08-11T08:22:49.990Z,96936.78
2023-08-11T08:24:22.351Z,96946.13
2023-08-11T08:25:54.323Z,96930.97
2023-08-11T08:27:26.111Z,96937.53
2023-08-11T08:28:57.778Z,96942.47
2023-08-11T08:30:29.492Z,96939.84
2023-08-11T08:32:01.131Z,96944.78
2023-08-11T08:33:32.875Z,96940.97
2023-08-11T08:35:07.638Z,96943.31
2023-08-11T08:36:39.511Z,96944.44
2023-08-11T08:38:11.185Z,96935.16
2023-08-11T08:39:44.690Z,96939.34
2023-08-11T08:41:19.565Z,96933.44
2023-08-11T08:42:51.278Z,96934.19
2023-08-11T08:44:22.973Z,96939.63
2023-08-11T08:45:54.907Z,96934.94
2023-08-11T08:47:27.602Z,96941.72
2023-08-11T08:49:08.394Z,96940.94
2023-08-11T08:50:41.740Z,96940.59
2023-08-11T08:52:13.772Z,96937.56
2023-08-11T08:53:45.501Z,96938.53
2023-08-11T08:55:18.263Z,96941.69
2023-08-11T08:56:50.445Z,96936.91
2023-08-11T08:58:22.158Z,96947.47
2023-08-11T08:59:53.799Z,96940.75
2023-08-11T09:01:25.563Z,96942.78
2023-08-11T09:02:57.340Z,96938.41
2023-08-11T09:04:29.240Z,96925.97
2023-08-11T09:06:02.505Z,96935.81
2023-08-11T09:07:34.634Z,96928.75
2023-08-11T09:09:06.464Z,96933.88
2023-08-11T09:10:38.192Z,96933.38
2023-08-11T09:12:10.858Z,96921.28
2023-08-11T09:13:44.645Z,96929.56
2023-08-11T09:15:16.317Z,96924.63
2023-08-11T09:16:48.754Z,96924.44
2023-08-11T09:18:20.437Z,96929.06
2023-08-11T09:19:53.756Z,96921.53
2023-08-11T09:21:26.755Z,96910.88
2023-08-11T09:22:59.361Z,96917.69
2023-08-11T09:24:31.069Z,96915.09
2023-08-11T09:26:02.840Z,96915.94
2023-08-11T09:27:34.601Z,96912.91
2023-08-11T09:29:06.505Z,96913.25
2023-08-11T09:30:38.245Z,96913.47
2023-08-11T09:32:10.186Z,96920.56
2023-08-11T09:33:42.049Z,96914.44
2023-08-11T09:35:14.069Z,96910.44
2023-08-11T09:36:47.782Z,96913.19
2023-08-11T09:38:19.474Z,96907.34
2023-08-11T09:39:51.174Z,96911.03
2023-08-11T09:41:23.420Z,96907.09
2023-08-11T09:42:55.139Z,96904.66
2023-08-11T09:44:27.187Z,96899.78
2023-08-11T09:46:03.042Z,96911.66
2023-08-11T09:47:34.914Z,96908.09
2023-08-11T09:49:07.348Z,96905.34
2023-08-11T09:50:39.120Z,96903.47
2023-08-11T09:52:12.758Z,96899.41
2023-08-11T09:53:44.413Z,96906.34
2023-08-11T09:55:16.038Z,96908.63
2023-08-11T09:56:47.710Z,96905.09
2023-08-11T09:58:20.153Z,96907.69
2023-08-11T09:59:52.086Z,96911.38
2023-08-11T10:01:26.204Z,96904.56
2023-08-11T10:03:00.852Z,96905.97
2023-08-11T10:04:35.764Z,96907.50
2023-08-11T10:06:07.703Z,96908.06
2023-08-11T10:07:42.738Z,96917.34
2023-08-11T10:09:14.484Z,96912.63
2023-08-11T10:10:52.090Z,96919.56
2023-08-11T10:12:23.893Z,96914.06
2023-08-11T10:13:55.659Z,96927.34
2023-08-11T10:15:27.787Z,96919.41
2023-08-11T10:16:59.751Z,96917.38
2023-08-11T10:18:32.512Z,96918.16
2023-08-11T10:20:06.290Z,96915.44
2023-08-11T10:21:37.997Z,96915.56
2023-08-11T10:23:11.469Z,96917.13
2023-08-11T10:24:44.732Z,96916.50
2023-08-11T10:26:16.548Z,96911.03
2023-08-11T10:27:48.256Z,96913.41
2023-08-11T10:29:19.961Z,96915.72
2023-08-11T10:30:55.979Z,96916.84
2023-08-11T10:32:29.701Z,96915.13
2023-08-11T10:34:06.326Z,96915.47
2023-08-11T10:35:48.730Z,96924.09
2023-08-11T10:37:24.270Z,96917.53
2023-08-11T10:39:05.099Z,96916.41
2023-08-11T10:40:37.929Z,96913.44
2023-08-11T10:42:11.699Z,96923.25
2023-08-11T10:43:47.237Z,96915.28
2023-08-11T10:45:19.925Z,96915.47
2023-08-11T10:46:52.729Z,96916.72
2023-08-11T10:48:24.571Z,96911.78
2023-08-11T10:49:56.424Z,96918.63
2023-08-11T10:51:32.305Z,96915.09
2023-08-11T10:53:07.772Z,96914.09
2023-08-11T10:54:49.509Z,96915.03
2023-08-11T10:56:28.110Z,96913.19
2023-08-11T10:58:13.113Z,96910.38
2023-08-11T10:59:44.834Z,96916.28
2023-08-11T11:01:16.588Z,96912.00
2023-08-11T11:02:48.362Z,96908.72
2023-08-11T11:04:20.815Z,96905.88
2023-08-11T11:05:52.513Z,96906.94
2023-08-11T11:07:24.855Z,96907.06
2023-08-11T11:08:56.718Z,96902.13
2023-08-11T11:10:43.428Z,96898.75
2023-08-11T11:12:20.974Z,96899.16
2023-08-11T11:13:55.756Z,96903.03
2023-08-11T11:15:28.605Z,96895.56
2023-08-11T11:17:01.005Z,96902.78
2023-08-11T11:18:33.581Z,96896.31
2023-08-11T11:20:06.581Z,96892.16
2023-08-11T11:21:39.666Z,96891.81
2023-08-11T11:23:11.635Z,96892.22
2023-08-11T11:24:43.271Z,96891.19
2023-08-11T11:26:21.648Z,96885.47
2023-08-11T11:27:55.731Z,96887.22
2023-08-11T11:29:29.401Z,96890.00
2023-08-11T11:31:01.368Z,96888.31
2023-08-11T11:32:33.144Z,96886.72
2023-08-11T11:34:05.472Z,96886.38
2023-08-11T11:35:37.491Z,96880.22
2023-08-11T11:37:09.579Z,96883.91
2023-08-11T11:38:41.413Z,96890.81
2023-08-11T11:40:13.626Z,96887.22
2023-08-11T11:41:46.731Z,96888.31
2023-08-11T11:43:18.763Z,96879.13
2023-08-11T11:44:51.160Z,96884.28
2023-08-11T11:46:23.123Z,96879.56
2023-08-11T11:47:56.635Z,96890.97
2023-08-11T11:49:30.655Z,96883.38
2023-08-11T11:51:04.723Z,96876.38
2023-08-11T11:52:38.192Z,96880.22
2023-08-11T11:54:10.177Z,96876.84
2023-08-11T11:55:45.671Z,96875.28
2023-08-11T11:57:18.747Z,96875.41
2023-08-11T11:58:50.995Z,96877.31
2023-08-11T12:00:22.875Z,96876.22
2023-08-11T12:01:58.376Z,96877.22
2023-08-11T12:03:30.183Z,96870.84
2023-08-11T12:05:01.992Z,96869.13
2023-08-11T12:06:33.754Z,96863.03
2023-08-11T12:08:22.159Z,96874.94
2023-08-11T12:09:54.848Z,96870.34
2023-08-11T12:11:26.857Z,96868.25
2023-08-11T12:13:04.656Z,96864.38
2023-08-11T12:14:39.293Z,96858.44
2023-08-11T12:16:11.630Z,96865.81
2023-08-11T12:17:43.507Z,96872.66
2023-08-11T12:19:15.853Z,96862.06
2023-08-11T12:20:47.976Z,96865.13
2023-08-11T12:22:19.763Z,96867.09
2023-08-11T12:23:51.751Z,96866.72
2023-08-11T12:25:24.409Z,96856.44
2023-08-11T12:26:58.747Z,96865.47
2023-08-11T12:28:32.379Z,96867.13
2023-08-11T12:30:04.864Z,96855.97
2023-08-11T12:31:36.592Z,96865.19
2023-08-11T12:33:08.362Z,96862.53
2023-08-11T12:34:40.106Z,96864.50
2023-08-11T12:36:11.784Z,96859.81
2023-08-11T12:37:43.437Z,96854.66
2023-08-11T12:39:15.287Z,96855.97
2023-08-11T12:40:47.044Z,96849.41
2023-08-11T12:42:19.048Z,96850.94
2023-08-11T12:43:52.420Z,96847.13
2023-08-11T12:45:24.277Z,96848.53
2023-08-11T12:46:55.956Z,96846.66
2023-08-11T12:48:27.973Z,96852.13
2023-08-11T12:49:59.756Z,96845.25
2023-08-11T12:51:31.381Z,96850.41
2023-08-11T12:53:03.313Z,96853.81
2023-08-11T12:54:35.192Z,96847.78
2023-08-11T12:56:07.013Z,96851.47
2023-08-11T12:57:38.700Z,96850.94
2023-08-11T12:59:12.175Z,96860.47
2023-08-11T13:00:44.277Z,96855.97
2023-08-11T13:02:16.034Z,96852.13
2023-08-11T13:03:48.406Z,96856.56
2023-08-11T13:05:20.133Z,96855.13
2023-08-11T13:06:51.935Z,96858.34
2023-08-11T13:08:23.938Z,96850.50
2023-08-11T13:09:55.992Z,96849.91
2023-08-11T13:11:27.791Z,96853.72
2023-08-11T13:12:59.492Z,96855.09
2023-08-11T13:14:32.548Z,96852.91
2023-08-11T13:16:05.222Z,96850.16
2023-08-11T13:17:37.088Z,96845.31
2023-08-11T13:19:10.034Z,96857.69
2023-08-11T13:20:42.813Z,96856.97
2023-08-11T13:22:14.525Z,96858.41
2023-08-11T13:23:46.431Z,96854.34
2023-08-11T13:25:18.290Z,96857.06
2023-08-11T13:26:50.200Z,96852.28
2023-08-11T13:28:22.080Z,96850.16
2023-08-11T13:30:02.113Z,96847.91
2023-08-11T13:31:33.901Z,96845.16
2023-08-11T13:33:06.202Z,96844.28
2023-08-11T13:34:37.914Z,96840.13
2023-08-11T13:36:10.985Z,96838.13
2023-08-11T13:37:42.816Z,96835.09
2023-08-11T13:39:14.554Z,96835.69
2023-08-11T13:40:46.223Z,96834.63
2023-08-11T13:42:18.315Z,96830.66
2023-08-11T13:43:50.021Z,96832.16
2023-08-11T13:45:23.058Z,96829.88
2023-08-11T13:46:54.694Z,96833.69
2023-08-11T13:48:28.262Z,96832.19
2023-08-11T13:50:01.521Z,96831.59
2023-08-11T13:51:33.723Z,96824.84
2023-08-11T13:53:05.392Z,96834.31
2023-08-11T13:54:37.312Z,96823.94
2023-08-11T13:56:10.260Z,96820.88
2023-08-11T13:57:42.022Z,96822.06
2023-08-11T13:59:13.701Z,96821.16
2023-08-11T14:00:48.427Z,96819.47
2023-08-11T14:02:20.166Z,96822.41
2023-08-11T14:03:51.845Z,96814.50
2023-08-11T14:05:23.763Z,96815.72
2023-08-11T14:07:00.542Z,96821.47
2023-08-11T14:08:38.155Z,96809.69
2023-08-11T14:10:10.288Z,96821.16
2023-08-11T14:11:42.049Z,96803.13
2023-08-11T14:13:14.026Z,96813.25
2023-08-11T14:14:48.851Z,96813.53
2023-08-11T14:16:21.985Z,96808.53
2023-08-11T14:17:53.782Z,96803.00
2023-08-11T14:19:25.673Z,96796.72
2023-08-11T14:20:57.380Z,96792.59
2023-08-11T14:22:29.086Z,96801.19
2023-08-11T14:24:00.966Z,96786.19
2023-08-11T14:25:33.931Z,96799.34
2023-08-11T14:27:06.420Z,96791.41
2023-08-11T14:28:39.407Z,96792.94
2023-08-11T14:30:12.142Z,96793.69
2023-08-11T14:31:45.210Z,96787.41
2023-08-11T14:33:16.980Z,96797.06
2023-08-11T14:34:48.696Z,96798.00
2023-08-11T14:36:20.598Z,96792.44
2023-08-11T14:37:52.300Z,96789.41
2023-08-11T14:39:24.106Z,96799.34
2023-08-11T14:40:57.116Z,96785.44
2023-08-11T14:42:28.883Z,96792.75
2023-08-11T14:44:06.565Z,96786.78
2023-08-11T14:45:38.251Z,96793.97
2023-08-11T14:47:15.196Z,96791.88
2023-08-11T14:48:47.832Z,96783.28
2023-08-11T14:50:19.779Z,96788.47
2023-08-11T14:51:52.862Z,96797.41
2023-08-11T14:53:26.825Z,96793.56
2023-08-11T14:54:58.481Z,96791.03
2023-08-11T14:56:30.287Z,96790.72
2023-08-11T14:58:02.244Z,96787.34
2023-08-11T14:59:33.957Z,96786.41
2023-08-11T15:01:06.478Z,96788.97
2023-08-11T15:02:41.769Z,96777.22
2023-08-11T15:04:13.915Z,96787.06
2023-08-11T15:05:45.681Z,96782.19
2023-08-11T15:07:17.393Z,96782.28
2023-08-11T15:08:49.108Z,96784.56
2023-08-11T15:10:20.920Z,96780.78
2023-08-11T15:11:52.634Z,96781.44
2023-08-11T15:13:24.373Z,96778.16
2023-08-11T15:14:56.265Z,96778.56
2023-08-11T15:16:29.177Z,96775.72
2023-08-11T15:18:04.676Z,96785.94
2023-08-11T15:19:36.363Z,96775.13
2023-08-11T15:21:08.299Z,96776.47
2023-08-11T15:22:40.241Z,96778.94
2023-08-11T15:24:12.035Z,96771.06
2023-08-11T15:25:44.008Z,96773.44
2023-08-11T15:27:17.495Z,96769.44
2023-08-11T15:28:50.660Z,96774.28
2023-08-11T15:30:23.834Z,96771.06
2023-08-11T15:31:55.486Z,96766.03
2023-08-11T15:33:28.794Z,96766.25
2023-08-11T15:35:00.651Z,96760.91
2023-08-11T15:36:32.374Z,96767.19
2023-08-11T15:38:04.779Z,96770.94
2023-08-11T15:39:37.290Z,96761.97
2023-08-11T15:41:09.001Z,96767.00
2023-08-11T15:42:40.647Z,96764.38
2023-08-11T15:44:16.586Z,96761.41
2023-08-11T15:45:48.326Z,96761.69
2023-08-11T15:47:20.079Z,96757.28
2023-08-11T15:48:53.715Z,96760.31
2023-08-11T15:50:25.693Z,96755.44
2023-08-11T15:51:57.407Z,96754.97
2023-08-11T15:53:29.131Z,96752.63
2023-08-11T15:55:00.952Z,96749.94
2023-08-11T15:56:32.612Z,96742.94
2023-08-11T15:58:04.587Z,96749.16
2023-08-11T15:59:36.431Z,96738.94
2023-08-11T16:01:09.261Z,96745.06
2023-08-11T16:02:41.305Z,96751.63
2023-08-11T16:04:14.430Z,96756.19
2023-08-11T16:05:46.293Z,96750.81
2023-08-11T16:07:17.928Z,96749.16
2023-08-11T16:08:49.695Z,96748.06
2023-08-11T16:10:21.374Z,96745.31
2023-08-11T16:11:55.192Z,96748.38
2023-08-11T16:13:27.112Z,96744.53
2023-08-11T16:14:58.821Z,96748.63
2023-08-11T16:16:30.562Z,96744.09
2023-08-11T16:18:02.239Z,96743.78
2023-08-11T16:19:36.020Z,96735.56
2023-08-11T16:21:08.552Z,96740.72
2023-08-11T16:22:40.201Z,96739.97
2023-08-11T16:24:11.866Z,96737.84
2023-08-11T16:25:43.598Z,96732.00
2023-08-11T16:27:15.297Z,96735.25
2023-08-11T16:28:47.008Z,96731.00
2023-08-11T16:30:18.783Z,96727.13
2023-08-11T16:31:50.557Z,96729.56
2023-08-11T16:33:22.301Z,96719.13
2023-08-11T16:34:55.420Z,96732.06
2023-08-11T16:36:28.753Z,96731.91
2023-08-11T16:38:00.500Z,96725.50
2023-08-11T16:39:32.248Z,96724.28
2023-08-11T16:41:04.298Z,96727.03
2023-08-11T16:42:36.028Z,96716.50
2023-08-11T16:44:11.907Z,96719.97
2023-08-11T16:45:45.667Z,96718.72
2023-08-11T16:47:17.455Z,96723.19
2023-08-11T16:48:49.660Z,96723.31
2023-08-11T16:50:22.762Z,96726.47
2023-08-11T16:51:54.426Z,96730.91
2023-08-11T16:53:26.124Z,96725.50
2023-08-11T16:54:59.257Z,96723.41
2023-08-11T16:56:31.235Z,96720.03
2023-08-11T16:58:03.263Z,96729.38
2023-08-11T16:59:35.671Z,96730.03
2023-08-11T17:01:07.718Z,96726.63
2023-08-11T17:02:39.604Z,96719.44
2023-08-11T17:04:13.526Z,96721.16
2023-08-11T17:05:46.547Z,96716.88
2023-08-11T17:07:18.258Z,96714.53
2023-08-11T17:08:51.509Z,96709.50
2023-08-11T17:10:27.453Z,96712.31
2023-08-11T17:11:59.145Z,96717.53
2023-08-11T17:13:31.013Z,96716.56
2023-08-11T17:15:03.532Z,96707.16
2023-08-11T17:16:35.285Z,96708.56
2023-08-11T17:18:07.394Z,96711.28
2023-08-11T17:19:39.149Z,96706.38
2023-08-11T17:21:12.252Z,96707.28
2023-08-11T17:22:43.956Z,96706.44
2023-08-11T17:24:15.596Z,96710.72
2023-08-11T17:25:47.645Z,96711.22
2023-08-11T17:27:19.350Z,96704.47
2023-08-11T17:28:54.761Z,96711.78
2023-08-11T17:30:26.779Z,96713.38
2023-08-11T17:31:58.407Z,96714.13
2023-08-11T17:33:30.200Z,96708.97
2023-08-11T17:35:02.175Z,96713.38
2023-08-11T17:36:35.712Z,96709.53
2023-08-11T17:38:07.775Z,96707.38
2023-08-11T17:39:39.778Z,96712.53
2023-08-11T17:41:11.787Z,96711.69
2023-08-11T17:42:49.507Z,96706.97
2023-08-11T17:44:21.216Z,96709.06
2023-08-11T17:45:53.185Z,96705.63
2023-08-11T17:47:30.491Z,96710.34
2023-08-11T17:49:02.335Z,96709.47
2023-08-11T17:50:35.590Z,96706.50
2023-08-11T17:52:08.886Z,96696.44
2023-08-11T17:53:41.670Z,96705.75
2023-08-11T17:55:14.297Z,96700.38
2023-08-11T17:56:46.055Z,96704.97
2023-08-11T17:58:17.892Z,96699.72
2023-08-11T17:59:49.956Z,96705.16
2023-08-11T18:01:24.205Z,96708.09
2023-08-11T18:02:56.188Z,96704.25
2023-08-11T18:04:28.016Z,96704.47
2023-08-11T18:05:59.734Z,96698.88
2023-08-11T18:07:32.758Z,96708.59